Wachapreague, Virginia
Current Conditions -  °F | °C
As of 11:35 AM on Wednesday 22 Oct 2014 (Local Time) from KMFV Reporting Station
Overcast Overcast  
Wind Chill: 59°   Ceiling: 1300
Heat Index: 59°   Visibility: 10mi
Dew Point: 52°   Wind: 12mph
Humidity: 77%   Direction: 350°N
Pressure: 29.8"   Gusts: 21mph
Location:  37.6°N, 75.69°W
Report Text: KMFV 221535Z AUTO 35010G18KT 320V020 10SM BKN013 OVC019 15/11 A2980 RMK AO2 LTG DSNT SE
Loading
Personal Weather Stations






























Interactive Weather Map
Tropical Storm Tracking
New forecast layout! Learn more

10-Day Weather Forecast

Advertisements
Track Severe Weather on mobile